Time;durP1;ratioP1;P1;durP2;ratioP2;P2;SDS_P1;SDS_P2;PMS_P1;PMS_P2;Temp;Humidity;BMP_temperature;BMP_pressure;BME280_temperature;BME280_humidity;BME280_pressure;Samples;Min_cycle;Max_cycle;Signal;HPM_P1;HPM_P2
2023/01/22 00:02:06;;;;;;;2.97;2.78;;;17.20;51.40;;;;;;5094048;28;20261;-58
2023/01/22 00:04:31;;;;;;;3.25;2.95;;;17.20;51.40;;;;;;5114714;28;20216;-58
2023/01/22 00:06:57;;;;;;;3.45;2.83;;;17.20;51.40;;;;;;5114881;28;20208;-58
2023/01/22 00:09:22;;;;;;;2.75;2.55;;;17.20;51.40;;;;;;5114122;28;20204;-59
2023/01/22 00:11:48;;;;;;;3.10;2.83;;;17.10;51.30;;;;;;5114659;28;20201;-58
2023/01/22 00:14:14;;;;;;;3.05;2.85;;;17.10;51.40;;;;;;5114066;28;20610;-58
2023/01/22 00:16:40;;;;;;;2.95;2.75;;;17.10;51.30;;;;;;5113937;28;20312;-58
2023/01/22 00:19:06;;;;;;;3.42;3.13;;;17.10;51.40;;;;;;5114630;28;20169;-58
2023/01/22 00:21:31;;;;;;;3.30;3.00;;;17.10;51.40;;;;;;5113821;28;20276;-58
2023/01/22 00:23:57;;;;;;;3.42;2.80;;;17.10;51.40;;;;;;5114422;28;20300;-58
2023/01/22 00:26:22;;;;;;;3.03;2.60;;;17.10;51.40;;;;;;5114770;28;20248;-58
2023/01/22 00:28:48;;;;;;;2.80;2.60;;;17.00;51.30;;;;;;5113634;28;20181;-58
2023/01/22 00:31:14;;;;;;;2.97;2.75;;;17.00;51.30;;;;;;5114528;28;20597;-58
2023/01/22 00:33:40;;;;;;;3.03;2.83;;;17.00;51.30;;;;;;5114215;28;20181;-58
2023/01/22 00:36:07;;;;;;;3.30;3.10;;;17.00;51.30;;;;;;5113751;28;20315;-58
2023/01/22 00:38:32;;;;;;;2.60;2.33;;;17.00;51.30;;;;;;5113979;28;20252;-58
2023/01/22 00:41:05;;;;;;;3.70;3.40;;;17.00;51.30;;;;;;5114613;28;20601;-58
2023/01/22 00:43:31;;;;;;;3.05;2.85;;;17.00;51.30;;;;;;5113389;28;20220;-58
2023/01/22 00:45:56;;;;;;;2.67;2.47;;;16.90;51.30;;;;;;5113969;28;20574;-58
2023/01/22 00:48:22;;;;;;;2.67;2.47;;;16.90;51.30;;;;;;5114105;28;20173;-58
2023/01/22 00:50:47;;;;;;;2.80;2.50;;;16.90;51.30;;;;;;5112959;28;20324;-58
2023/01/22 00:53:13;;;;;;;3.42;3.13;;;16.90;51.30;;;;;;5114315;28;20272;-58
2023/01/22 00:55:38;;;;;;;2.72;2.40;;;16.90;51.30;;;;;;5113909;28;20192;-58
2023/01/22 00:58:04;;;;;;;2.55;2.35;;;16.90;51.30;;;;;;5113178;28;20546;-58
2023/01/22 01:00:29;;;;;;;2.97;2.72;;;16.80;51.30;;;;;;5113861;28;20616;-58
2023/01/22 01:05:39;;;;;;;2.88;2.67;;;16.80;51.20;;;;;;5112760;28;20206;-58
2023/01/22 01:08:05;;;;;;;3.03;2.72;;;16.80;51.30;;;;;;5114217;28;20173;-58
2023/01/22 01:10:30;;;;;;;3.00;2.80;;;16.80;51.30;;;;;;5113239;28;20177;-58
2023/01/22 01:12:56;;;;;;;2.83;2.63;;;16.80;51.30;;;;;;5113657;28;20176;-58
2023/01/22 01:15:21;;;;;;;3.20;3.00;;;16.80;51.40;;;;;;5113489;28;20188;-58
2023/01/22 01:17:47;;;;;;;2.78;2.58;;;16.80;51.30;;;;;;5112527;28;20217;-58
2023/01/22 01:20:12;;;;;;;3.13;2.80;;;16.80;51.40;;;;;;5113468;28;20180;-58
2023/01/22 01:22:38;;;;;;;3.15;2.95;;;16.70;51.30;;;;;;5113216;28;20204;-59
2023/01/22 01:25:04;;;;;;;2.72;2.53;;;16.70;51.30;;;;;;5113000;28;20238;-56
2023/01/22 01:27:30;;;;;;;2.80;2.60;;;16.70;51.30;;;;;;5112725;28;20173;-58
2023/01/22 01:29:56;;;;;;;3.03;2.80;;;16.70;51.40;;;;;;5113365;28;20181;-57
2023/01/22 01:32:22;;;;;;;2.75;2.55;;;16.70;51.30;;;;;;5112647;28;20531;-58
2023/01/22 01:34:48;;;;;;;3.03;2.83;;;16.70;51.40;;;;;;5112929;28;20256;-58
2023/01/22 01:37:14;;;;;;;2.75;2.55;;;16.70;51.30;;;;;;5113553;28;20176;-58
2023/01/22 01:39:40;;;;;;;2.72;2.50;;;16.70;51.30;;;;;;5112587;28;20539;-58
2023/01/22 01:42:05;;;;;;;2.53;2.33;;;16.70;51.30;;;;;;5113366;28;20173;-58
2023/01/22 01:44:31;;;;;;;2.97;2.78;;;16.60;51.30;;;;;;5113094;28;20569;-58
2023/01/22 01:47:04;;;;;;;2.50;2.30;;;16.60;51.30;;;;;;5112447;28;20601;-58
2023/01/22 01:49:37;;;;;;;2.78;2.45;;;16.60;51.30;;;;;;5095960;28;20173;-58
2023/01/22 01:52:05;;;;;;;2.90;2.63;;;16.60;51.30;;;;;;5113287;28;20180;-58
2023/01/22 01:54:30;;;;;;;3.10;2.80;;;16.60;51.30;;;;;;5094148;28;20173;-58
2023/01/22 01:57:00;;;;;;;2.70;2.50;;;16.60;51.90;;;;;;5113125;28;20267;-58
2023/01/22 01:59:26;;;;;;;2.70;2.50;;;16.60;51.30;;;;;;5094956;28;20173;-58
2023/01/22 02:01:54;;;;;;;2.47;2.28;;;16.60;51.30;;;;;;5093911;28;20649;-58
2023/01/22 02:04:20;;;;;;;2.47;2.25;;;16.50;51.30;;;;;;5113179;28;20212;-58
2023/01/22 02:06:46;;;;;;;2.65;2.45;;;16.50;51.30;;;;;;5094015;28;20169;-58
2023/01/22 02:09:12;;;;;;;2.40;2.28;;;16.50;51.30;;;;;;5112944;28;20177;-58
2023/01/22 02:11:38;;;;;;;2.88;2.67;;;16.50;51.30;;;;;;5112776;28;20173;-58
2023/01/22 02:14:09;;;;;;;2.72;2.53;;;16.50;51.30;;;;;;5112371;28;20979;-58
2023/01/22 02:16:34;;;;;;;2.83;2.63;;;16.50;51.30;;;;;;5112474;28;20231;-58
2023/01/22 02:19:00;;;;;;;2.70;2.25;;;16.50;52.00;;;;;;5112862;28;20177;-58
2023/01/22 02:21:31;;;;;;;2.42;2.22;;;16.50;51.30;;;;;;5112375;28;20260;-58
2023/01/22 02:23:57;;;;;;;2.88;2.67;;;16.50;51.30;;;;;;5112847;28;20236;-58
2023/01/22 02:26:22;;;;;;;2.60;2.40;;;16.40;51.30;;;;;;5112946;28;20627;-58
2023/01/22 02:28:48;;;;;;;2.75;2.55;;;16.40;51.30;;;;;;5111670;28;20184;-57
2023/01/22 02:31:13;;;;;;;3.28;2.97;;;16.40;51.30;;;;;;5113102;28;20169;-58
2023/01/22 02:33:39;;;;;;;2.30;2.20;;;16.40;51.30;;;;;;5112743;28;20170;-58
2023/01/22 02:36:05;;;;;;;2.75;2.55;;;16.40;51.30;;;;;;5112234;28;20169;-58
2023/01/22 02:38:30;;;;;;;3.42;2.70;;;16.40;51.30;;;;;;5113591;28;20643;-58
2023/01/22 02:40:56;;;;;;;3.10;2.63;;;16.40;51.30;;;;;;5116607;28;20173;-58
2023/01/22 02:43:21;;;;;;;2.80;2.60;;;16.40;51.30;;;;;;5115718;28;20204;-58
2023/01/22 02:45:47;;;;;;;2.45;2.25;;;16.40;51.30;;;;;;5116153;28;20199;-58
2023/01/22 02:48:13;;;;;;;2.90;2.65;;;16.40;51.30;;;;;;5116716;28;20256;-57
2023/01/22 02:50:38;;;;;;;2.60;2.40;;;16.30;51.30;;;;;;5115424;28;20490;-57
2023/01/22 02:53:03;;;;;;;2.63;2.42;;;16.30;51.30;;;;;;5116443;28;20177;-58
2023/01/22 02:55:29;;;;;;;2.67;2.47;;;16.30;51.30;;;;;;5116437;28;20173;-58
2023/01/22 02:57:55;;;;;;;2.60;2.40;;;16.30;51.30;;;;;;5115300;28;20177;-58
2023/01/22 03:00:20;;;;;;;2.75;2.30;;;16.30;51.30;;;;;;5116468;28;20173;-58
2023/01/22 03:02:46;;;;;;;2.78;2.58;;;16.30;51.20;;;;;;5114735;28;20220;-58
2023/01/22 03:05:11;;;;;;;2.50;2.30;;;16.30;51.30;;;;;;5115625;28;20630;-58
2023/01/22 03:07:43;;;;;;;2.63;2.42;;;16.30;51.30;;;;;;5115689;28;20627;-58
2023/01/22 03:10:16;;;;;;;2.55;2.35;;;16.30;51.30;;;;;;5115379;28;20252;-59
2023/01/22 03:21:14;;;;;;;2.65;2.45;;;16.20;51.30;;;;;;5115813;28;20172;-59
2023/01/22 03:23:40;;;;;;;2.20;2.10;;;16.20;51.30;;;;;;5115789;28;20216;-59
2023/01/22 03:26:05;;;;;;;3.13;2.72;;;16.20;51.30;;;;;;5115357;28;20176;-58
2023/01/22 03:28:31;;;;;;;2.85;2.30;;;16.20;51.20;;;;;;5115737;28;20182;-59
2023/01/22 03:30:56;;;;;;;2.42;2.22;;;16.20;51.30;;;;;;5115564;28;20193;-59
2023/01/22 03:33:22;;;;;;;2.25;2.08;;;16.10;51.30;;;;;;5114849;28;20181;-59
2023/01/22 03:35:48;;;;;;;2.67;2.47;;;16.10;51.30;;;;;;5115370;28;20222;-59
2023/01/22 03:38:13;;;;;;;2.10;2.00;;;16.20;51.30;;;;;;5114871;28;20173;-59
2023/01/22 03:40:39;;;;;;;2.40;2.20;;;16.10;51.30;;;;;;5115421;28;20161;-59
2023/01/22 03:43:04;;;;;;;2.80;2.60;;;16.10;51.30;;;;;;5115240;28;20262;-58
2023/01/22 03:45:32;;;;;;;2.30;2.10;;;16.10;51.30;;;;;;5114764;28;20897;-59
2023/01/22 03:47:57;;;;;;;2.42;2.25;;;16.10;51.30;;;;;;5115235;28;20177;-58
2023/01/22 03:50:23;;;;;;;2.47;2.28;;;16.10;51.20;;;;;;5114651;28;20175;-59
2023/01/22 03:52:48;;;;;;;2.50;2.30;;;16.10;51.30;;;;;;5114303;28;20310;-58
2023/01/22 03:55:14;;;;;;;2.03;1.92;;;16.10;51.30;;;;;;5115352;28;20300;-58
2023/01/22 03:57:39;;;;;;;2.13;2.03;;;16.00;51.20;;;;;;5114885;28;20248;-59
2023/01/22 04:00:06;;;;;;;2.05;1.95;;;16.00;51.20;;;;;;5114442;28;20269;-58
2023/01/22 04:02:32;;;;;;;2.33;2.20;;;16.00;51.20;;;;;;5114663;28;20201;-59
2023/01/22 04:04:58;;;;;;;2.40;2.20;;;16.00;51.20;;;;;;5115078;28;20180;-59
2023/01/22 04:07:23;;;;;;;2.17;2.00;;;16.00;51.20;;;;;;5114387;28;20533;-59
2023/01/22 04:09:49;;;;;;;2.53;2.33;;;16.00;51.20;;;;;;5114713;28;20227;-59
2023/01/22 04:12:14;;;;;;;2.40;2.20;;;16.00;51.20;;;;;;5114848;28;20230;-59
2023/01/22 04:14:40;;;;;;;2.40;2.20;;;16.00;51.20;;;;;;5113801;28;20173;-59
2023/01/22 04:17:05;;;;;;;2.30;2.20;;;16.00;51.20;;;;;;5114488;28;20212;-59
2023/01/22 04:19:31;;;;;;;2.20;2.10;;;16.00;51.20;;;;;;5114391;28;20716;-59
2023/01/22 04:21:56;;;;;;;2.17;1.98;;;16.00;51.30;;;;;;5114040;28;20177;-59
2023/01/22 04:24:22;;;;;;;2.58;2.38;;;15.90;51.20;;;;;;5114665;28;20205;-59
2023/01/22 04:26:47;;;;;;;2.22;2.05;;;16.00;51.30;;;;;;5114184;28;20681;-59
2023/01/22 04:29:13;;;;;;;2.55;2.35;;;15.90;51.20;;;;;;5113698;28;20237;-58
2023/01/22 04:31:38;;;;;;;2.50;2.30;;;15.90;51.90;;;;;;5114000;28;20173;-58
2023/01/22 04:34:04;;;;;;;2.53;2.33;;;15.90;51.20;;;;;;5114460;28;20321;-58
2023/01/22 04:36:29;;;;;;;2.10;2.00;;;15.90;51.20;;;;;;5113904;28;20248;-58
2023/01/22 04:38:55;;;;;;;2.25;2.05;;;15.90;51.30;;;;;;5114193;28;20631;-58
2023/01/22 04:41:20;;;;;;;1.90;1.80;;;15.90;51.20;;;;;;5114220;28;20661;-58
2023/01/22 04:43:46;;;;;;;2.45;2.25;;;15.90;51.30;;;;;;5112990;28;20662;-58
2023/01/22 04:46:11;;;;;;;2.45;2.25;;;15.90;51.30;;;;;;5114144;28;20185;-58
2023/01/22 04:48:37;;;;;;;2.22;2.00;;;15.90;51.30;;;;;;5113028;28;20181;-58
2023/01/22 04:51:02;;;;;;;2.15;2.03;;;15.80;51.30;;;;;;5114243;28;20173;-58
2023/01/22 04:53:28;;;;;;;2.30;2.13;;;15.80;51.20;;;;;;5113991;28;20177;-57
2023/01/22 04:55:53;;;;;;;1.95;1.85;;;15.90;51.30;;;;;;5113138;28;20715;-57
2023/01/22 04:58:19;;;;;;;1.88;1.77;;;15.80;51.90;;;;;;5113830;28;20709;-57
2023/01/22 05:00:44;;;;;;;2.70;2.00;;;15.80;51.30;;;;;;5113668;28;20274;-57
2023/01/22 05:03:11;;;;;;;2.05;1.95;;;15.80;51.30;;;;;;5113105;28;20215;-58
2023/01/22 05:05:36;;;;;;;2.00;1.90;;;15.80;51.30;;;;;;5113725;28;20180;-58
2023/01/22 05:08:02;;;;;;;2.45;2.33;;;15.80;51.30;;;;;;5113812;28;20174;-58
2023/01/22 05:10:27;;;;;;;2.03;1.90;;;15.80;51.30;;;;;;5113149;28;20177;-58
2023/01/22 05:12:53;;;;;;;2.38;2.20;;;15.80;51.30;;;;;;5113406;28;20181;-57
2023/01/22 05:15:19;;;;;;;2.25;2.08;;;15.70;51.30;;;;;;5113639;28;20177;-58
2023/01/22 05:17:44;;;;;;;2.30;2.10;;;15.80;51.30;;;;;;5112405;28;20224;-58
2023/01/22 05:20:10;;;;;;;2.03;1.92;;;15.70;51.30;;;;;;5113793;28;20169;-58
2023/01/22 05:22:35;;;;;;;2.55;2.40;;;15.70;51.30;;;;;;5113368;28;20268;-58
2023/01/22 05:25:01;;;;;;;2.42;2.22;;;15.70;51.30;;;;;;5112975;28;20177;-58
2023/01/22 05:27:26;;;;;;;2.72;2.47;;;15.70;51.30;;;;;;5113478;28;20534;-57
2023/01/22 05:29:52;;;;;;;2.08;1.88;;;15.70;51.30;;;;;;5113274;28;20675;-57
2023/01/22 05:32:17;;;;;;;1.90;1.80;;;15.70;51.30;;;;;;5112718;28;20173;-58
2023/01/22 05:34:43;;;;;;;2.17;2.08;;;15.70;51.60;;;;;;5113280;28;20244;-58
2023/01/22 05:37:09;;;;;;;2.10;2.00;;;15.70;51.30;;;;;;5113497;28;20172;-58
2023/01/22 05:39:34;;;;;;;2.00;1.90;;;15.70;51.30;;;;;;5112353;28;20586;-58
2023/01/22 05:42:00;;;;;;;2.22;2.03;;;15.70;51.30;;;;;;5113230;28;20173;-58
2023/01/22 05:44:25;;;;;;;2.10;2.00;;;15.60;51.30;;;;;;5113198;28;20219;-58
2023/01/22 05:46:51;;;;;;;2.03;1.83;;;15.70;51.30;;;;;;5112097;28;20239;-58
2023/01/22 05:49:16;;;;;;;2.00;1.80;;;15.60;51.30;;;;;;5113483;28;20624;-58
2023/01/22 05:51:42;;;;;;;1.90;1.80;;;15.60;51.40;;;;;;5112877;28;20173;-57
2023/01/22 05:54:07;;;;;;;1.98;1.88;;;15.60;51.30;;;;;;5112651;28;20180;-57
2023/01/22 05:56:33;;;;;;;1.83;1.58;;;15.60;51.40;;;;;;5112897;28;20176;-57
2023/01/22 05:58:58;;;;;;;2.13;2.03;;;15.60;51.40;;;;;;5112508;28;20634;-57
2023/01/22 06:01:24;;;;;;;2.22;2.13;;;15.60;51.40;;;;;;5113044;28;20505;-58
2023/01/22 06:03:50;;;;;;;2.13;1.92;;;15.60;51.40;;;;;;5113044;28;20213;-58
2023/01/22 06:06:16;;;;;;;2.55;2.35;;;15.50;51.30;;;;;;5112317;28;20607;-57
2023/01/22 06:08:41;;;;;;;2.20;2.00;;;15.60;51.40;;;;;;5112509;28;20271;-58
2023/01/22 06:11:12;;;;;;;2.47;2.28;;;15.50;51.30;;;;;;5113087;28;20210;-57
2023/01/22 06:13:37;;;;;;;1.85;1.75;;;15.50;51.40;;;;;;5113231;28;20221;-58
2023/01/22 06:16:03;;;;;;;1.90;1.80;;;15.50;51.40;;;;;;5116969;28;20307;-57
2023/01/22 06:18:28;;;;;;;1.73;1.63;;;15.50;51.40;;;;;;5117174;28;20180;-58
2023/01/22 06:21:01;;;;;;;1.65;1.55;;;15.50;51.40;;;;;;5116202;28;20172;-58
2023/01/22 06:23:28;;;;;;;1.90;1.80;;;15.50;51.40;;;;;;5116979;28;20221;-58
2023/01/22 06:25:54;;;;;;;1.58;1.42;;;15.50;51.40;;;;;;5116672;28;20184;-56
2023/01/22 06:28:20;;;;;;;1.80;1.70;;;15.50;51.40;;;;;;5116001;28;20531;-58
2023/01/22 06:30:45;;;;;;;2.03;1.92;;;15.50;51.40;;;;;;5116679;28;20177;-57
2023/01/22 06:33:11;;;;;;;1.55;1.45;;;15.40;51.30;;;;;;5116974;28;20658;-58
2023/01/22 06:35:37;;;;;;;2.03;1.85;;;15.50;51.50;;;;;;5115768;28;20291;-58
2023/01/22 06:38:02;;;;;;;1.80;1.70;;;15.50;52.00;;;;;;5116705;28;20268;-58
2023/01/22 06:40:28;;;;;;;2.03;1.90;;;15.40;51.40;;;;;;5116907;28;20271;-58
2023/01/22 06:42:53;;;;;;;1.67;1.58;;;15.40;51.40;;;;;;5115388;28;20211;-58
2023/01/22 06:45:19;;;;;;;1.77;1.67;;;15.40;51.40;;;;;;5116550;28;20184;-58
2023/01/22 06:47:44;;;;;;;2.25;2.05;;;15.40;51.40;;;;;;5116405;28;20176;-58
2023/01/22 06:50:11;;;;;;;1.77;1.67;;;15.40;51.40;;;;;;5115850;28;20178;-57
2023/01/22 06:52:36;;;;;;;2.10;1.77;;;15.40;51.40;;;;;;5116197;28;20519;-57
2023/01/22 06:55:02;;;;;;;1.77;1.67;;;15.50;51.40;;;;;;5116214;28;20179;-58
2023/01/22 06:57:28;;;;;;;1.65;1.55;;;15.50;51.30;;;;;;5115642;28;20177;-58
2023/01/22 06:59:53;;;;;;;2.17;1.70;;;15.50;51.30;;;;;;5115895;28;20631;-58
2023/01/22 07:02:19;;;;;;;2.17;1.88;;;15.50;51.30;;;;;;5115258;28;20173;-58
2023/01/22 07:04:44;;;;;;;1.88;1.63;;;15.60;51.30;;;;;;5115875;28;20219;-59
2023/01/22 07:07:10;;;;;;;1.60;1.50;;;15.50;51.20;;;;;;5116321;28;20564;-58
2023/01/22 07:09:35;;;;;;;1.60;1.50;;;15.60;51.40;;;;;;5114931;28;20192;-57
2023/01/22 07:12:01;;;;;;;1.88;1.77;;;15.70;51.50;;;;;;5116042;28;20174;-58
2023/01/22 07:14:27;;;;;;;1.40;1.30;;;15.70;51.50;;;;;;5116093;28;20169;-58
2023/01/22 07:16:52;;;;;;;1.30;1.20;;;15.90;51.20;;;;;;5114706;28;20216;-58
2023/01/22 07:19:18;;;;;;;1.75;1.65;;;16.10;50.90;;;;;;5115879;28;20177;-59
2023/01/22 07:21:43;;;;;;;1.55;1.45;;;16.30;50.70;;;;;;5115457;28;20211;-58
2023/01/22 07:24:09;;;;;;;1.33;1.23;;;16.50;50.50;;;;;;5114862;28;20248;-58
2023/01/22 07:26:35;;;;;;;1.38;1.27;;;16.70;50.30;;;;;;5096148;28;20169;-73
2023/01/22 07:29:01;;;;;;;1.35;1.25;;;16.90;50.10;;;;;;5115259;28;20631;-73
2023/01/22 07:31:27;;;;;;;2.65;1.73;;;16.90;49.90;;;;;;5114920;28;20181;-74
2023/01/22 07:33:52;;;;;;;2.47;1.50;;;17.10;49.90;;;;;;5115382;28;20212;-73
2023/01/22 07:36:18;;;;;;;1.73;1.60;;;17.10;49.90;;;;;;5117345;28;20176;-65
2023/01/22 07:38:43;;;;;;;1.40;1.30;;;17.20;49.90;;;;;;5114586;28;20299;-65
2023/01/22 07:41:09;;;;;;;1.73;1.63;;;17.30;49.70;;;;;;5114933;28;20310;-68
2023/01/22 07:43:34;;;;;;;1.90;1.42;;;17.40;49.70;;;;;;5114732;28;20640;-69
2023/01/22 07:46:03;;;;;;;2.45;1.70;;;17.40;49.70;;;;;;5114752;28;20211;-69
2023/01/22 07:48:29;;;;;;;1.90;1.70;;;17.40;49.70;;;;;;5115316;28;20173;-69
2023/01/22 07:50:58;;;;;;;1.73;1.30;;;17.50;49.70;;;;;;5114784;28;20176;-70
2023/01/22 07:53:23;;;;;;;1.55;1.30;;;17.50;49.60;;;;;;5114526;28;20173;-70
2023/01/22 07:55:49;;;;;;;1.77;1.42;;;17.50;49.80;;;;;;5114716;28;20177;-73
2023/01/22 07:58:14;;;;;;;2.03;1.30;;;17.50;49.90;;;;;;5115228;28;20169;-72
2023/01/22 08:00:40;;;;;;;1.88;1.38;;;17.40;50.00;;;;;;5114196;28;20180;-74
2023/01/22 08:03:05;;;;;;;1.88;1.35;;;17.40;50.00;;;;;;5115168;28;20215;-69
2023/01/22 08:05:31;;;;;;;1.80;1.25;;;17.40;50.20;;;;;;5114207;28;20256;-70
2023/01/22 08:07:57;;;;;;;1.63;1.50;;;17.40;50.30;;;;;;5114842;28;20169;-67
2023/01/22 08:10:22;;;;;;;3.88;1.50;;;17.40;50.30;;;;;;5114922;28;20177;-67
2023/01/22 08:12:48;;;;;;;1.80;1.40;;;17.40;50.20;;;;;;5113515;28;20226;-68
2023/01/22 08:15:14;;;;;;;1.38;1.27;;;17.40;50.20;;;;;;5114786;28;20177;-66
2023/01/22 08:17:39;;;;;;;1.50;1.40;;;17.50;50.20;;;;;;5114202;28;20265;-67
2023/01/22 08:20:06;;;;;;;1.63;1.33;;;17.50;50.80;;;;;;5113861;28;20181;-68
2023/01/22 08:22:31;;;;;;;2.50;1.30;;;17.40;50.20;;;;;;5114523;28;20243;-67
2023/01/22 08:24:56;;;;;;;3.08;1.63;;;17.40;50.30;;;;;;5114184;28;20727;-66
2023/01/22 08:27:22;;;;;;;7.22;1.40;;;17.30;51.00;;;;;;5113660;28;20971;-66
2023/01/22 08:29:50;;;;;;;1.35;1.20;;;17.30;50.40;;;;;;5114206;28;20305;-66
2023/01/22 08:32:17;;;;;;;3.75;1.40;;;17.30;50.40;;;;;;5114484;28;20173;-66
2023/01/22 08:34:42;;;;;;;1.92;1.20;;;17.20;50.60;;;;;;5113429;28;20263;-66
2023/01/22 08:37:08;;;;;;;1.95;1.27;;;17.20;50.60;;;;;;5113667;28;20635;-67
2023/01/22 08:39:33;;;;;;;1.95;1.50;;;17.10;50.60;;;;;;5113937;28;20628;-69
2023/01/22 08:41:59;;;;;;;1.30;1.20;;;17.20;50.70;;;;;;5113633;28;20185;-66
2023/01/22 08:44:24;;;;;;;2.35;1.30;;;17.20;50.70;;;;;;5113754;28;20209;-67
2023/01/22 08:46:50;;;;;;;1.75;1.48;;;17.20;50.70;;;;;;5113920;28;20181;-66
2023/01/22 08:49:17;;;;;;;3.17;1.38;;;17.20;50.70;;;;;;5113461;28;20269;-66
2023/01/22 08:51:43;;;;;;;1.27;1.17;;;17.20;50.70;;;;;;5113830;28;20267;-67
2023/01/22 08:54:08;;;;;;;1.58;1.10;;;17.30;50.70;;;;;;5113975;28;20181;-66
2023/01/22 08:56:34;;;;;;;1.40;0.98;;;17.30;50.70;;;;;;5113002;28;20177;-67
2023/01/22 08:59:05;;;;;;;2.10;1.17;;;17.30;50.70;;;;;;5114114;28;20504;-65
2023/01/22 09:01:30;;;;;;;6.40;1.55;;;17.30;50.70;;;;;;5113998;28;20175;-66
2023/01/22 09:03:56;;;;;;;1.80;1.00;;;17.30;50.70;;;;;;5112981;28;20303;-67
2023/01/22 09:06:22;;;;;;;1.60;1.10;;;17.20;50.70;;;;;;5113955;28;20223;-64
2023/01/22 09:08:47;;;;;;;3.05;0.80;;;17.20;50.60;;;;;;5112830;28;20177;-72
2023/01/22 09:11:13;;;;;;;1.42;1.33;;;17.20;50.70;;;;;;5113910;28;20195;-73
2023/01/22 09:13:38;;;;;;;1.25;1.15;;;17.10;50.90;;;;;;5113390;28;20188;-67
2023/01/22 09:16:04;;;;;;;1.48;1.00;;;17.00;50.90;;;;;;5112920;28;20277;-67
2023/01/22 09:18:30;;;;;;;1.88;1.20;;;17.00;51.00;;;;;;5113863;28;20173;-66
2023/01/22 09:20:57;;;;;;;1.45;1.20;;;17.00;50.90;;;;;;5113586;28;20666;-65
2023/01/22 09:23:23;;;;;;;2.47;1.35;;;17.00;50.90;;;;;;5112365;28;20701;-66
2023/01/22 09:25:49;;;;;;;3.58;1.08;;;17.10;50.80;;;;;;5113458;28;20185;-63
2023/01/22 09:28:14;;;;;;;1.33;1.23;;;17.20;50.90;;;;;;5113662;28;20233;-64
2023/01/22 09:30:41;;;;;;;1.73;1.00;;;17.30;50.90;;;;;;5112333;28;20579;-64
2023/01/22 09:33:07;;;;;;;2.00;1.10;;;17.40;50.80;;;;;;5113691;28;20185;-64
2023/01/22 09:35:32;;;;;;;1.52;0.90;;;17.60;50.60;;;;;;5113192;28;20306;-64
2023/01/22 09:37:58;;;;;;;1.77;1.00;;;17.80;50.20;;;;;;5112499;28;20184;-65
2023/01/22 09:40:40;;;;;;;1.63;1.10;;;18.00;50.00;;;;;;5113418;28;20165;-65
2023/01/22 09:43:14;;;;;;;1.35;1.08;;;18.20;49.70;;;;;;5093087;28;20220;-65
2023/01/22 09:45:40;;;;;;;1.90;0.80;;;18.20;49.60;;;;;;5073655;28;20225;-65
2023/01/22 09:48:10;;;;;;;1.10;1.00;;;18.20;49.60;;;;;;5092230;28;20621;-65
2023/01/22 09:50:35;;;;;;;1.70;0.98;;;18.20;49.50;;;;;;5080723;28;20170;-66
2023/01/22 09:53:02;;;;;;;2.15;1.00;;;18.30;49.50;;;;;;5090952;28;20189;-65
2023/01/22 09:55:31;;;;;;;1.85;1.02;;;18.30;49.20;;;;;;5093122;28;20174;-66
2023/01/22 09:58:00;;;;;;;2.90;1.10;;;18.40;49.20;;;;;;5091542;28;20173;-65
2023/01/22 10:00:56;;;;;;;1.13;1.02;;;18.40;49.20;;;;;;5087123;28;20208;-67
2023/01/22 10:03:39;;;;;;;1.98;0.85;;;18.50;49.00;;;;;;5093096;28;20201;-66
2023/01/22 10:06:13;;;;;;;3.28;0.88;;;18.50;49.00;;;;;;5074773;28;20181;-66
2023/01/22 10:09:00;;;;;;;0.90;0.90;;;18.60;49.00;;;;;;5074770;28;20205;-66
2023/01/22 10:11:26;;;;;;;2.78;1.08;;;18.50;49.00;;;;;;5077611;28;20170;-66
2023/01/22 10:13:54;;;;;;;0.93;0.80;;;18.50;49.00;;;;;;5091841;28;20169;-66
2023/01/22 10:16:20;;;;;;;1.52;1.00;;;18.60;48.90;;;;;;5085997;28;20223;-65
2023/01/22 10:19:14;;;;;;;1.10;0.90;;;18.60;48.80;;;;;;5112733;28;20181;-66
2023/01/22 10:22:03;;;;;;;0.93;0.70;;;18.60;48.80;;;;;;5080574;28;20177;-65
2023/01/22 10:24:29;;;;;;;1.67;0.90;;;18.70;48.70;;;;;;5114978;28;20241;-66
2023/01/22 10:26:54;;;;;;;1.23;0.73;;;18.70;48.70;;;;;;5112022;28;20196;-66
2023/01/22 10:29:31;;;;;;;3.00;0.82;;;18.70;48.70;;;;;;5077655;28;20178;-67
2023/01/22 10:31:58;;;;;;;1.25;0.93;;;18.70;48.60;;;;;;5112701;28;20600;-66
2023/01/22 10:34:33;;;;;;;1.95;1.02;;;18.70;48.60;;;;;;5112100;28;20169;-64
2023/01/22 10:37:00;;;;;;;2.17;0.93;;;18.80;48.40;;;;;;5113071;28;20284;-65
2023/01/22 10:39:25;;;;;;;2.00;0.73;;;18.80;48.50;;;;;;5112809;28;20169;-65
2023/01/22 10:41:59;;;;;;;1.83;0.77;;;18.90;48.40;;;;;;5111804;28;20173;-64
2023/01/22 10:44:25;;;;;;;2.25;0.70;;;18.90;48.40;;;;;;5112815;28;20250;-65
2023/01/22 10:46:51;;;;;;;1.38;0.80;;;18.90;49.20;;;;;;5112323;28;20185;-64
2023/01/22 10:49:24;;;;;;;1.80;0.90;;;18.90;48.50;;;;;;5094083;28;20200;-71
2023/01/22 10:51:54;;;;;;;1.98;1.00;;;18.90;48.60;;;;;;5112584;28;20181;-63
2023/01/22 10:54:40;;;;;;;1.83;0.95;;;18.80;49.30;;;;;;5093848;28;20184;-63
2023/01/22 10:57:30;;;;;;;2.75;0.98;;;19.00;48.50;;;;;;5094794;28;20198;-62
2023/01/22 11:00:05;;;;;;;2.95;0.93;;;19.00;48.40;;;;;;5096220;28;20177;-65
2023/01/22 11:02:32;;;;;;;3.47;1.30;;;19.00;48.60;;;;;;5115318;28;20536;-65
2023/01/22 11:05:11;;;;;;;1.85;0.88;;;19.00;48.40;;;;;;5098391;28;20228;-64
2023/01/22 11:07:36;;;;;;;0.88;0.80;;;19.00;48.40;;;;;;5097773;28;20180;-66
2023/01/22 11:10:02;;;;;;;3.33;0.98;;;19.00;48.40;;;;;;5097380;28;20176;-65
2023/01/22 11:12:30;;;;;;;1.88;1.08;;;19.00;48.30;;;;;;5116130;28;20563;-64
2023/01/22 11:15:15;;;;;;;3.95;1.40;;;19.10;48.30;;;;;;5097811;28;20169;-64
2023/01/22 11:17:45;;;;;;;3.78;1.30;;;19.10;48.30;;;;;;5098394;28;20284;-68
2023/01/22 11:20:27;;;;;;;2.83;1.30;;;19.10;48.30;;;;;;5081256;28;20193;-66
2023/01/22 11:23:09;;;;;;;1.73;1.05;;;19.10;48.30;;;;;;5096558;28;20580;-66
2023/01/22 11:25:52;;;;;;;2.75;1.00;;;19.10;48.40;;;;;;5099208;28;20177;-66
2023/01/22 11:28:23;;;;;;;2.72;1.17;;;19.20;48.50;;;;;;5115690;28;20177;-65
2023/01/22 11:30:55;;;;;;;1.65;0.95;;;19.20;48.50;;;;;;5114806;28;20173;-66
2023/01/22 11:33:20;;;;;;;5.35;1.00;;;19.20;48.50;;;;;;5097862;28;20184;-66
2023/01/22 11:36:00;;;;;;;2.13;0.80;;;19.20;48.50;;;;;;5115416;28;20170;-66
2023/01/22 11:38:51;;;;;;;2.08;0.85;;;19.20;48.50;;;;;;5096965;28;20181;-66
2023/01/22 11:41:22;;;;;;;3.70;0.90;;;19.30;48.60;;;;;;5097141;28;20177;-66
2023/01/22 11:43:54;;;;;;;3.40;1.20;;;19.30;48.60;;;;;;5114022;28;20231;-65
2023/01/22 11:46:33;;;;;;;3.58;1.10;;;19.30;49.20;;;;;;5115543;28;20323;-66
2023/01/22 11:49:18;;;;;;;2.10;1.25;;;19.30;48.40;;;;;;5097771;28;20690;-65
2023/01/22 11:52:12;;;;;;;1.17;0.90;;;19.30;48.50;;;;;;5094144;28;20174;-64
2023/01/22 11:54:40;;;;;;;3.08;1.40;;;19.30;48.40;;;;;;5093433;28;20403;-69
2023/01/22 11:57:11;;;;;;;2.67;1.20;;;19.40;48.10;;;;;;5076779;28;20170;-66
2023/01/22 11:59:39;;;;;;;2.97;1.20;;;19.50;48.00;;;;;;5075357;28;20177;-65
2023/01/22 12:02:32;;;;;;;2.15;0.90;;;19.40;48.20;;;;;;5094326;28;20230;-64
2023/01/22 12:04:57;;;;;;;2.60;0.80;;;19.50;48.30;;;;;;5075294;28;20714;-66
2023/01/22 12:07:28;;;;;;;0.68;0.63;;;19.50;48.40;;;;;;5094546;28;20173;-66
2023/01/22 12:10:18;;;;;;;1.77;1.20;;;19.60;48.40;;;;;;5094123;28;20178;-66
2023/01/22 12:12:44;;;;;;;1.45;0.77;;;19.60;48.50;;;;;;5092698;28;20170;-64
2023/01/22 12:15:14;;;;;;;1.88;0.80;;;19.60;48.50;;;;;;5093934;28;20585;-68
2023/01/22 12:18:26;;;;;;;2.15;1.00;;;19.70;48.50;;;;;;5075725;28;20236;-65
2023/01/22 12:21:16;;;;;;;1.80;1.15;;;19.70;48.50;;;;;;5046738;28;20292;-65
2023/01/22 12:23:46;;;;;;;2.45;1.08;;;19.70;48.70;;;;;;5075657;28;20550;-73
2023/01/22 12:26:32;;;;;;;5.90;1.15;;;19.70;48.60;;;;;;5075741;28;20200;-64
2023/01/22 12:29:01;;;;;;;1.88;1.27;;;19.60;48.00;;;;;;5093400;28;20248;-65
2023/01/22 12:31:44;;;;;;;1.33;0.90;;;19.50;48.20;;;;;;5075512;28;20225;-64
2023/01/22 12:34:15;;;;;;;2.28;1.02;;;19.50;48.20;;;;;;5077029;28;20181;-64
2023/01/22 12:36:40;;;;;;;1.70;0.93;;;19.60;48.20;;;;;;5059586;28;20220;-64
2023/01/22 12:39:14;;;;;;;1.38;1.00;;;19.60;48.30;;;;;;5059378;28;20173;-64
2023/01/22 12:41:45;;;;;;;2.08;1.20;;;19.60;48.30;;;;;;5059302;28;20178;-64
2023/01/22 12:44:35;;;;;;;4.40;1.15;;;19.50;48.30;;;;;;5093455;28;20205;-64
2023/01/22 12:47:27;;;;;;;1.67;1.20;;;19.50;48.30;;;;;;5075582;28;20605;-64
2023/01/22 12:49:52;;;;;;;1.00;0.70;;;19.60;48.30;;;;;;5096013;28;20188;-64
2023/01/22 12:52:35;;;;;;;1.27;1.02;;;19.50;48.30;;;;;;5114378;28;20169;-64
2023/01/22 12:55:01;;;;;;;2.42;1.10;;;19.70;48.20;;;;;;5113461;28;20290;-64
2023/01/22 12:57:40;;;;;;;0.80;0.80;;;19.70;48.20;;;;;;5113989;28;20639;-64
2023/01/22 13:00:29;;;;;;;2.05;0.93;;;19.60;48.20;;;;;;5096009;28;20222;-64
2023/01/22 13:02:55;;;;;;;1.50;0.80;;;19.70;48.30;;;;;;5113083;28;20514;-64
2023/01/22 13:05:35;;;;;;;2.65;1.02;;;19.70;48.90;;;;;;5114112;28;20177;-64